Data for 03/08/2006

Time Sea-Level Adjusted Pressure Absolute Pressure Temperature Relative Humidity Dew Point   
(mb) (inHg) (mb) (inHg) (C) (F) (%) (C) (F)
00:05 1013 29.91 843 24.89 -0.5 31.1 84 -2.9 26.8
00:10 1013 29.91 843 24.89 -0.8 30.6 86 -2.8 27
00:15 1013 29.91 843 24.89 -1.1 30 87 -2.9 26.7
00:20 1013 29.91 843 24.89 -1.1 30.1 86 -3.2 26.3
00:25 1013 29.91 843 24.89 -0.7 30.8 85 -2.9 26.8
00:30 1013 29.91 843 24.89 -0.5 31.2 84 -2.8 26.9
00:35 1013 29.91 843 24.89 -0.3 31.5 83 -2.8 26.9
00:40 1013 29.91 843 24.89 -0.2 31.7 80 -3.2 26.2
00:45 1013 29.91 843 24.89 0.2 32.3 78 -3.1 26.4
00:50 1013 29.91 843 24.89 0.3 32.6 77 -3.2 26.2
00:55 1013 29.91 843 24.89 0.3 32.6 79 -2.9 26.8
01:00 1013 29.91 842 24.86 0.2 32.3 79 -3 26.6
01:05 1013 29.91 842 24.86 0.1 32.1 79 -3.1 26.5
01:10 1013 29.91 843 24.89 -0.1 31.8 81 -2.9 26.8
01:15 1013 29.91 843 24.89 -0.4 31.4 83 -2.8 26.9
01:20 1013 29.91 843 24.89 -0.9 30.4 85 -3.2 26.3
01:25 1013 29.91 842 24.86 -1.2 29.9 85 -3.3 26
01:30 1013 29.91 842 24.86 -0.9 30.4 84 -3.3 26.1
01:35 1013 29.91 842 24.86 -0.6 30.9 83 -3.2 26.2
01:40 1013 29.91 843 24.89 -0.6 31 82 -3.3 26
01:45 1013 29.91 843 24.89 -0.5 31 82 -3.3 26.1
01:50 1013 29.91 843 24.89 -0.7 30.8 82 -3.3 26
01:55 1013 29.91 843 24.89 -1 30.3 86 -3 26.7
02:00 1013 29.91 843 24.89 -1.3 29.7 87 -3.1 26.4
02:05 1013 29.91 843 24.89 -1.3 29.7 87 -3.1 26.4
02:10 1013 29.91 843 24.89 -1.5 29.4 87 -3.3 26
02:15 1013 29.91 843 24.89 -1.6 29.1 88 -3.4 25.9
02:20 1013 29.91 843 24.89 -1.5 29.3 86 -3.5 25.8
02:25 1013 29.91 842 24.86 -1.5 29.3 87 -3.5 25.8
02:30 1013 29.91 842 24.86 -1.6 29.2 86 -3.7 25.4
02:35 1013 29.91 842 24.86 -1.5 29.2 85 -3.7 25.4
02:40 1013 29.91 842 24.86 -1.4 29.4 84 -3.8 25.2
02:45 1013 29.91 842 24.86 -1.4 29.6 83 -3.9 25.1
02:50 1013 29.91 842 24.86 -1.2 29.8 82 -4 24.9
02:55 1013 29.91 842 24.86 -1.1 30 80 -4.1 24.5
03:00 1013 29.91 842 24.86 -1.1 30 77 -4.6 23.7
03:05 1013 29.91 842 24.86 -1.1 30.1 77 -4.5 23.8
03:10 1013 29.91 842 24.86 -0.9 30.4 76 -4.5 23.8
03:15 1013 29.91 842 24.86 -0.8 30.5 76 -4.6 23.7
03:20 1013 29.91 842 24.86 -0.9 30.5 75 -4.7 23.6
03:25 1013 29.91 842 24.86 -0.8 30.6 75 -4.7 23.6
03:30 1013 29.91 842 24.86 -0.8 30.6 74 -4.8 23.4
03:35 1013 29.91 842 24.86 -0.9 30.5 74 -4.9 23.1
03:40 1013 29.91 842 24.86 -1.1 30.1 74 -5 22.9
03:45 1013 29.91 842 24.86 -1.3 29.7 75 -5.2 22.7
03:50 1013 29.91 842 24.86 -1.6 29.1 76 -5.3 22.5
03:55 1013 29.91 842 24.86 -1.8 28.8 76 -5.5 22.2
04:00 1013 29.91 842 24.86 -2 28.5 77 -5.5 22.1
04:05 1013 29.91 842 24.86 -2 28.3 77 -5.6 21.9
04:10 1013 29.91 842 24.86 -2 28.4 77 -5.6 22
04:15 1013 29.91 842 24.86 -2 28.4 76 -5.6 21.8
04:20 1013 29.91 842 24.86 -1.9 28.6 76 -5.7 21.8
04:25 1013 29.91 842 24.86 -2 28.4 76 -5.7 21.8
04:30 1013 29.91 842 24.86 -2.1 28.3 76 -5.8 21.6
04:35 1013 29.91 842 24.86 -2.1 28.2 77 -5.6 21.9
04:40 1013 29.91 842 24.86 -2 28.4 76 -5.6 21.9
04:45 1013 29.91 842 24.86 -1.9 28.6 76 -5.6 21.9
04:50 1013 29.91 842 24.86 -1.8 28.8 76 -5.5 22.1
04:55 1013 29.91 842 24.86 -1.7 29 75 -5.6 21.9
05:00 1013 29.91 842 24.86 -1.7 29 75 -5.5 22.1
05:05 1013 29.91 842 24.86 -1.7 28.9 76 -5.5 22.2
05:10 1013 29.91 842 24.86 -1.8 28.7 76 -5.5 22.1
05:15 1013 29.91 842 24.86 -1.9 28.6 76 -5.6 21.9
05:20 1013 29.91 842 24.86 -2 28.3 76 -5.7 21.8
05:25 1013 29.91 842 24.86 -2.3 27.9 78 -5.7 21.8
05:30 1013 29.91 842 24.86 -2.4 27.6 78 -5.8 21.6
05:35 1013 29.91 842 24.86 -2.3 27.8 77 -5.9 21.4
05:40 1013 29.91 842 24.86 -2.6 27.4 79 -5.8 21.6
05:45 1013 29.91 842 24.86 -3.1 26.4 81 -6 21.2
05:50 1013 29.91 842 24.86 -3.5 25.6 82 -6.2 20.9
05:55 1013 29.91 842 24.86 -3.9 25 85 -6.1 21
06:00 1013 29.91 842 24.86 -4 24.8 85 -6.2 20.9
06:05 1013 29.91 842 24.86 -4 24.8 85 -6.2 20.9
06:10 1013 29.91 842 24.86 -3.9 24.9 85 -6.1 21
06:15 1013 29.91 842 24.86 -3.9 25 86 -5.8 21.5
06:20 1013 29.91 842 24.86 -3.6 25.4 86 -5.6 21.9
06:25 1013 29.91 842 24.86 -3.3 26.1 84 -5.6 22
06:30 1013 29.91 842 24.86 -3.3 26.1 83 -5.8 21.6
06:35 1013 29.91 842 24.86 -3.3 26.1 83 -5.8 21.5
06:40 1013 29.91 842 24.86 -3.3 26.1 83 -5.8 21.6
06:45 1013 29.91 842 24.86 -3.2 26.2 83 -5.7 21.8
06:50 1013 29.91 842 24.86 -3.2 26.3 82 -5.8 21.6
06:55 1013 29.91 843 24.89 -3.5 25.7 83 -6 21.2
07:00 1013 29.91 843 24.89 -3.8 25.2 84 -6.1 21
07:05 1013 29.91 843 24.89 -3.8 25.2 83 -6.3 20.7
07:10 1013 29.91 843 24.89 -3.8 25.1 83 -6.2 20.8
07:15 1013 29.91 843 24.89 -3.4 25.9 81 -6.3 20.7
07:20 1013 29.91 843 24.89 -2.9 26.8 79 -6 21.2
07:25 1013 29.91 843 24.89 -2.9 26.7 81 -5.8 21.5
07:30 1013 29.91 843 24.89 -2.9 26.7 80 -6 21.2
07:35 1013 29.91 843 24.89 -3.5 25.7 83 -6 21.1
07:40 1013 29.91 843 24.89 -3.4 25.8 82 -6.1 21
07:45 1013 29.91 842 24.86 -3.2 26.3 80 -6.1 21.1
07:50 1013 29.91 843 24.89 -3.1 26.4 81 -6 21.3
07:55 1013 29.91 843 24.89 -2.9 26.7 79 -6 21.2
08:00 1013 29.91 843 24.89 -2.8 26.9 79 -6 21.2
08:05 1013 29.91 843 24.89 -3.2 26.2 81 -6 21.2
08:10 1013 29.91 842 24.86 -3.3 26 81 -6.1 21
08:15 1013 29.91 842 24.86 -3.4 25.9 82 -6.1 21.1
08:20 1013 29.91 842 24.86 -3.2 26.2 81 -6.1 21
08:25 1013 29.91 843 24.89 -3.2 26.2 82 -5.9 21.4
08:30 1013 29.91 843 24.89 -3.1 26.5 82 -5.8 21.6
08:35 1013 29.91 843 24.89 -3 26.7 80 -6 21.2
08:40 1013 29.91 843 24.89 -3 26.5 80 -6 21.2
08:45 1013 29.91 843 24.89 -2.9 26.7 80 -5.9 21.5
08:50 1013 29.91 842 24.86 -2.7 27.2 80 -5.6 21.9
08:55 1013 29.91 842 24.86 -2.5 27.5 81 -5.4 22.2
09:00 1013 29.91 842 24.86 -2.4 27.7 79 -5.6 22
09:05 1013 29.91 843 24.89 -2.1 28.2 78 -5.4 22.3
09:10 1013 29.91 843 24.89 -1.5 29.2 76 -5.2 22.6
09:15 1013 29.91 843 24.89 -1 30.3 72 -5.3 22.5
09:20 1013 29.91 842 24.86 -0.7 30.8 71 -5.3 22.4
09:25 1013 29.91 842 24.86 -0.1 31.8 68 -5.3 22.5
09:30 1013 29.91 842 24.86 0.6 33.1 64 -5.5 22.1
09:35 1013 29.91 842 24.86 0.7 33.3 63 -5.5 22.1
09:40 1013 29.91 842 24.86 0.6 33.1 63 -5.6 21.9
09:45 1013 29.91 842 24.86 0.1 32.2 65 -5.7 21.8
09:50 1013 29.91 842 24.86 -0.3 31.4 66 -5.9 21.4
09:55 1013 29.91 842 24.86 -0.2 31.6 66 -5.9 21.4
10:00 1013 29.91 842 24.86 -0.2 31.6 66 -5.9 21.4
10:05 1013 29.91 842 24.86 -0.1 31.9 64 -6.1 21.1
10:10 1013 29.91 842 24.86 0.3 32.6 64 -5.6 21.8
10:15 1013 29.91 842 24.86 0.6 33 64 -5.6 22
10:20 1013 29.91 842 24.86 0.7 33.2 62 -5.7 21.7
10:25 1013 29.91 842 24.86 0.4 32.7 64 -5.7 21.8
10:30 1013 29.91 842 24.86 0.7 33.2 62 -5.7 21.7
10:35 1012 29.88 842 24.86 1.2 34.1 61 -5.5 22.1
10:40 1012 29.88 842 24.86 1.5 34.7 60 -5.5 22.1
10:45 1012 29.88 842 24.86 1.9 35.4 53 -6.6 20.1
10:50 1012 29.88 841 24.83 1.7 35 57 -5.8 21.5
10:55 1012 29.88 841 24.83 1.8 35.3 56 -6.1 21
11:00 1012 29.88 841 24.83 1.6 34.9 60 -5.2 22.6
11:05 1012 29.88 841 24.83 2.5 36.5 52 -6.4 20.6
11:10 1012 29.88 841 24.83 2.9 37.2 57 -4.8 23.3
11:15 1012 29.88 841 24.83 1.9 35.5 58 -5.5 22.2
11:20 1012 29.88 841 24.83 1.3 34.4 60 -5.5 22.1
11:25 1012 29.88 841 24.83 1.5 34.8 55 -6.5 20.2
11:30 1012 29.88 841 24.83 1.3 34.3 57 -6.3 20.7
11:35 1012 29.88 841 24.83 0.9 33.6 59 -6.3 20.6
11:40 1012 29.88 841 24.83 1.2 34.2 56 -6.6 20.1
11:45 1012 29.88 841 24.83 1.8 35.3 56 -6 21.1
11:50 1011 29.85 841 24.83 1.8 35.2 52 -7 19.4
11:55 1011 29.85 840 24.81 1.8 35.3 55 -6.4 20.5
12:00 1011 29.85 841 24.83 2.3 36.2 54 -6 21.1
12:05 1011 29.85 840 24.81 3.1 37.6 48 -6.7 19.9
12:10 1011 29.85 840 24.81 3.3 37.9 46 -7.3 18.9
12:15 1011 29.85 840 24.81 3.4 38.2 44 -7.8 17.9
12:20 1011 29.85 840 24.81 3 37.5 45 -7.8 17.9
12:25 1011 29.85 840 24.81 3.1 37.6 44 -8 17.7
12:30 1011 29.85 840 24.81 3.3 38 42 -8.2 17.2
12:35 1011 29.85 840 24.81 3.7 38.7 42 -8.1 17.5
12:40 1011 29.85 840 24.81 3.7 38.6 40 -8.6 16.5
12:45 1010 29.83 839 24.78 3.7 38.6 39 -9 15.8
12:50 1010 29.83 839 24.78 3.5 38.4 40 -8.9 16
12:55 1010 29.83 839 24.78 4.1 39.3 39 -8.7 16.4
13:00 1010 29.83 839 24.78 4.7 40.4 34 -9.9 14.2
13:05 1010 29.83 839 24.78 5.5 41.9 30 -10.6 12.9
13:10 1010 29.83 839 24.78 4.9 40.9 31 -11 12.1
13:15 1009 29.8 839 24.78 4.6 40.2 32 -10.9 12.4
13:20 1009 29.8 839 24.78 3.8 38.9 33 -10.9 12.3
13:25 1009 29.8 838 24.75 4.5 40.1 31 -11.2 11.9
13:30 1009 29.8 838 24.75 5.1 41.1 31 -10.9 12.4
13:35 1009 29.8 838 24.75 4.6 40.4 29 -11.8 10.7
13:40 1009 29.8 838 24.75 4.6 40.4 31 -11.3 11.7
13:45 1009 29.8 838 24.75 5 41.1 31 -10.9 12.3
13:50 1009 29.8 838 24.75 5.1 41.1 29 -11.4 11.6
13:55 1009 29.8 838 24.75 6 42.8 29 -10.8 12.6
14:00 1009 29.8 838 24.75 6.5 43.6 27 -11.4 11.5
14:05 1008 29.77 838 24.75 5.9 42.6 28 -11.3 11.6
14:10 1008 29.77 838 24.75 5.3 41.5 29 -11.2 11.9
14:15 1008 29.77 837 24.72 5.7 42.2 28 -11.4 11.5
14:20 1008 29.77 837 24.72 5.3 41.6 29 -11.2 11.9
14:25 1008 29.77 837 24.72 5.4 41.7 27 -12.2 10
14:30 1008 29.77 837 24.72 5.2 41.3 29 -11.5 11.3
14:35 1008 29.77 837 24.72 4.9 40.8 29 -11.7 10.9
14:40 1008 29.77 837 24.72 4.8 40.7 27 -12.6 9.3
14:45 1008 29.77 837 24.72 5.1 41.1 27 -12.4 9.6
14:50 1007 29.74 837 24.72 5.3 41.5 25 -13 8.5
14:55 1007 29.74 837 24.72 5.5 41.9 26 -12.4 9.7
15:00 1007 29.74 836 24.69 5.8 42.4 26 -12.1 10.1
15:05 1007 29.74 836 24.69 5.7 42.2 28 -11.5 11.3
15:10 1007 29.74 836 24.69 5.6 42.1 27 -12.2 10.1
15:15 1007 29.74 836 24.69 5.6 42.1 27 -12.1 10.1
15:20 1007 29.74 836 24.69 5 40.9 27 -12.3 9.8
15:25 1007 29.74 836 24.69 5.1 41.2 28 -12 10.4
15:30 1007 29.74 836 24.69 5.4 41.7 26 -12.8 9
15:35 1006 29.71 836 24.69 5.6 42 27 -11.9 10.5
15:40 1006 29.71 836 24.69 5.8 42.5 27 -11.8 10.8
15:45 1006 29.71 835 24.66 5.7 42.2 28 -11.5 11.4
15:50 1006 29.71 835 24.66 5.4 41.7 26 -12.4 9.6
15:55 1006 29.71 835 24.66 5.6 42.1 27 -12.1 10.2
16:00 1006 29.71 835 24.66 5.6 42.1 27 -12.2 10
16:05 1006 29.71 835 24.66 5.6 42 27 -12.1 10.3
16:10 1006 29.71 835 24.66 5.8 42.5 27 -11.6 11.1
16:15 1005 29.68 835 24.66 6 42.8 28 -11.3 11.7
16:20 1005 29.68 835 24.66 5.8 42.5 26 -12.3 9.9
16:25 1005 29.68 835 24.66 5.9 42.7 26 -12.3 9.9
16:30 1005 29.68 835 24.66 6 42.8 27 -11.7 10.9
16:35 1005 29.68 835 24.66 5.9 42.7 27 -11.7 10.9
16:40 1005 29.68 834 24.63 6.2 43.1 27 -11.4 11.5
16:45 1005 29.68 834 24.63 6.2 43.2 28 -11.1 12
16:50 1005 29.68 834 24.63 6 42.8 29 -10.7 12.7
16:55 1005 29.68 834 24.63 5.9 42.6 30 -10.5 13.1
17:00 1005 29.68 834 24.63 5.8 42.5 30 -10.5 13.2
17:05 1005 29.68 834 24.63 5.8 42.5 29 -11 12.3
17:10 1005 29.68 834 24.63 5.5 41.9 28 -11.7 10.9
17:15 1005 29.68 834 24.63 5.1 41.1 29 -11.8 10.8
17:20 1005 29.68 834 24.63 4.8 40.7 30 -11.5 11.3
17:25 1005 29.68 834 24.63 4.5 40.1 29 -12 10.5
17:30 1005 29.68 834 24.63 4.2 39.6 31 -11.4 11.5
17:35 1005 29.68 834 24.63 4.1 39.3 30 -11.9 10.5
17:40 1005 29.68 834 24.63 4 39.2 31 -11.6 11.2
17:45 1005 29.68 834 24.63 3.9 39 30 -12.1 10.2
17:50 1004 29.65 834 24.63 3.9 39 30 -12.3 9.8
17:55 1004 29.65 834 24.63 3.8 38.8 30 -12.4 9.6
18:00 1004 29.65 834 24.63 3.6 38.4 31 -12.2 10
18:05 1004 29.65 833 24.6 3.4 38.2 31 -12.2 10
18:10 1004 29.65 833 24.6 3.4 38 32 -11.7 10.9
18:15 1004 29.65 833 24.6 3 37.5 33 -11.8 10.7
18:20 1004 29.65 833 24.6 2.9 37.1 33 -12.1 10.3
18:25 1004 29.65 833 24.6 2.8 37.1 33 -11.8 10.7
18:30 1004 29.65 833 24.6 2.6 36.7 35 -11.5 11.4
18:35 1004 29.65 833 24.6 2.4 36.4 36 -11.3 11.6
18:40 1004 29.65 833 24.6 2.4 36.3 37 -11 12.2
18:45 1004 29.65 833 24.6 2.3 36.2 38 -10.6 12.9
18:50 1004 29.65 833 24.6 2 35.7 39 -10.7 12.8
18:55 1003 29.62 833 24.6 2 35.5 35 -11.9 10.6
19:00 1003 29.62 833 24.6 2 35.6 36 -11.5 11.2
19:05 1003 29.62 833 24.6 2 35.7 37 -11.1 12
19:10 1003 29.62 832 24.57 1.6 34.8 44 -9.6 14.8
19:15 1003 29.62 832 24.57 1.3 34.3 41 -10.7 12.7
19:20 1003 29.62 832 24.57 1.2 34.2 44 -9.7 14.5
19:25 1003 29.62 832 24.57 0.9 33.6 44 -10 14
19:30 1003 29.62 832 24.57 0.9 33.6 44 -10.1 13.8
19:35 1003 29.62 832 24.57 0.9 33.7 47 -9.2 15.4
19:40 1003 29.62 832 24.57 0.7 33.3 43 -10.4 13.3
19:45 1003 29.62 832 24.57 1 33.8 40 -11.2 11.9
19:50 1003 29.62 832 24.57 1.4 34.5 41 -10.4 13.3
19:55 1002 29.59 832 24.57 1.2 34.2 45 -9.4 15
20:00 1002 29.59 831 24.54 0.5 32.8 48 -9.3 15.3
20:05 1002 29.59 831 24.54 0.1 32.1 47 -9.8 14.3
20:10 1002 29.59 831 24.54 0.2 32.3 43 -10.9 12.4
20:15 1002 29.59 831 24.54 0.7 33.3 41 -11.2 11.9
20:20 1002 29.59 831 24.54 1.2 34.1 40 -10.9 12.4
20:25 1002 29.59 831 24.54 1.6 34.9 38 -11.2 11.8
20:30 1002 29.59 831 24.54 1.7 35.1 39 -11 12.3
20:35 1002 29.59 831 24.54 1.7 35.1 39 -10.8 12.5
20:40 1002 29.59 831 24.54 1.8 35.2 39 -10.7 12.8
20:45 1002 29.59 831 24.54 2.1 35.7 39 -10.5 13.1
20:50 1001 29.56 831 24.54 2.1 35.9 41 -9.9 14.1
20:55 1001 29.56 831 24.54 2.1 35.7 39 -10.4 13.3
21:00 1001 29.56 830 24.51 1.8 35.2 41 -10 13.9
21:05 1001 29.56 830 24.51 1.7 35 41 -10.2 13.6
21:10 1001 29.56 830 24.51 1.6 34.8 42 -10.1 13.8
21:15 1001 29.56 830 24.51 2 35.5 41 -9.9 14.1
21:20 1001 29.56 830 24.51 2.2 35.9 38 -10.7 12.8
21:25 1001 29.56 830 24.51 2.3 36.2 39 -10.3 13.5
21:30 1001 29.56 830 24.51 2.3 36.2 37 -10.8 12.6
21:35 1001 29.56 830 24.51 2.4 36.3 38 -10.6 12.9
21:40 1000 29.53 830 24.51 2.4 36.3 38 -10.4 13.3
21:45 1000 29.53 830 24.51 2.4 36.3 38 -10.6 12.9
21:50 1000 29.53 830 24.51 2.4 36.3 38 -10.7 12.8
21:55 1000 29.53 829 24.48 2.5 36.5 39 -10.2 13.7
22:00 1000 29.53 829 24.48 2.4 36.4 39 -10.3 13.4
22:05 1000 29.53 829 24.48 2.5 36.5 40 -9.9 14.1
22:10 1000 29.53 829 24.48 2.5 36.5 40 -9.9 14.2
22:15 1000 29.53 829 24.48 2.5 36.5 41 -9.5 14.8
22:20 1000 29.53 829 24.48 2.5 36.5 41 -9.5 15
22:25 1000 29.53 829 24.48 2.6 36.7 42 -9.2 15.5
22:30 1000 29.53 829 24.48 2.5 36.5 42 -9.2 15.5
22:35 1000 29.53 829 24.48 2.2 36 45 -8.6 16.4
22:40 999 29.5 829 24.48 2.2 36 45 -8.7 16.4
22:45 999 29.5 829 24.48 2.2 35.9 44 -9 15.8
22:50 999 29.5 829 24.48 1.7 35 45 -9 15.8
22:55 999 29.5 829 24.48 1.6 34.9 44 -9.3 15.3
23:00 999 29.5 828 24.45 1.6 34.9 45 -9.2 15.4
23:05 999 29.5 828 24.45 1.5 34.7 45 -9.3 15.3
23:10 999 29.5 828 24.45 1.6 34.8 45 -9.1 15.6
23:15 999 29.5 828 24.45 1.5 34.8 45 -9.1 15.7
23:20 999 29.5 828 24.45 1.6 34.8 45 -9.2 15.4
23:25 999 29.5 828 24.45 1.6 34.8 46 -9 15.9
23:30 999 29.5 828 24.45 1.9 35.3 46 -8.6 16.6
23:35 999 29.5 828 24.45 2.1 35.8 46 -8.4 16.8
23:40 999 29.5 828 24.45 2.2 35.9 46 -8.3 17.1
23:45 999 29.5 828 24.45 2.2 36 47 -8 17.6
23:50 999 29.5 828 24.45 2 35.6 49 -7.7 18.2
23:55 998 29.47 828 24.45 1.9 35.5 49 -7.6 18.4
24:00 998 29.47 828 24.45 1.9 35.4 48 -7.8 17.9